Time;durP1;ratioP1;P1;durP2;ratioP2;P2;SDS_P1;SDS_P2;PMS_P1;PMS_P2;Temp;Humidity;BMP_temperature;BMP_pressure;BME280_temperature;BME280_humidity;BME280_pressure;Samples;Min_cycle;Max_cycle;Signal;HPM_P1;HPM_P2
2021/12/17 00:07:03;;;;;;;0.35;0.30;;;7.60;99.90;;;;;;5068701;28;20255;-75
2021/12/17 00:09:28;;;;;;;0.30;0.30;;;7.80;99.90;;;;;;5068670;28;20617;-75
2021/12/17 00:11:54;;;;;;;0.17;0.17;;;7.80;99.90;;;;;;5087580;28;20177;-76
2021/12/17 00:14:29;;;;;;;0.17;0.17;;;7.50;99.90;;;;;;5072425;28;20163;-75
2021/12/17 00:17:00;;;;;;;0.13;0.13;;;7.40;99.90;;;;;;5072386;28;20211;-75
2021/12/17 00:46:33;;;;;;;0.28;0.28;;;7.20;99.90;;;;;;5072055;28;20168;-75
2021/12/17 00:49:35;;;;;;;0.17;0.15;;;7.20;99.90;;;;;;5071975;28;20156;-75
2021/12/17 00:52:02;;;;;;;0.10;0.10;;;7.10;99.90;;;;;;5071946;28;20526;-75
2021/12/17 00:54:37;;;;;;;0.10;0.10;;;7.10;99.90;;;;;;5071799;28;20157;-76
2021/12/17 00:57:17;;;;;;;0.10;0.10;;;7.40;99.90;;;;;;5070459;28;20531;-74
2021/12/17 00:59:50;;;;;;;0.38;0.28;;;7.50;99.90;;;;;;5071311;28;20220;-75
2021/12/17 01:02:21;;;;;;;0.10;0.10;;;7.30;99.90;;;;;;5065930;28;20188;-76
2021/12/17 01:04:52;;;;;;;0.40;0.32;;;7.30;99.90;;;;;;5043130;28;20192;-75
2021/12/17 01:07:22;;;;;;;0.20;0.20;;;7.30;99.90;;;;;;5071377;28;20205;-76
2021/12/17 01:09:48;;;;;;;0.20;0.20;;;7.30;99.90;;;;;;5070394;28;20168;-75
2021/12/17 01:12:15;;;;;;;0.70;0.20;;;7.60;99.90;;;;;;5071472;28;20633;-75
2021/12/17 01:14:42;;;;;;;0.70;0.20;;;7.70;99.90;;;;;;5071354;28;20157;-75
2021/12/17 01:17:10;;;;;;;0.28;0.28;;;7.50;99.90;;;;;;5071374;28;20214;-75
2021/12/17 01:35:21;;;;;;;0.13;0.13;;;7.20;99.90;;;;;;5071258;28;20191;-75
2021/12/17 01:36:25;;;;;;;0.10;0.10;;;6.90;99.90;;;;;;5070887;28;20195;-75
2021/12/17 01:44:16;;;;;;;0.98;0.30;;;7.10;99.90;;;;;;5070956;28;20161;-76
2021/12/17 01:46:43;;;;;;;0.63;0.10;;;7.20;99.90;;;;;;5070590;28;20209;-75
2021/12/17 02:00:12;;;;;;;0.20;0.20;;;7.60;99.90;;;;;;5070410;28;20272;-76
2021/12/17 02:02:43;;;;;;;0.40;0.25;;;7.70;99.90;;;;;;5067282;28;20177;-75
2021/12/17 02:05:11;;;;;;;0.40;0.20;;;7.70;99.90;;;;;;5055288;28;20177;-75
2021/12/17 02:07:38;;;;;;;0.17;0.17;;;7.70;99.90;;;;;;5070152;28;20230;-75
2021/12/17 02:29:27;;;;;;;0.28;0.25;;;6.70;99.90;;;;;;5069981;28;20226;-75
2021/12/17 02:31:59;;;;;;;0.20;0.20;;;6.90;99.90;;;;;;5069968;28;20157;-75
2021/12/17 02:37:12;;;;;;;0.30;0.30;;;6.90;99.90;;;;;;5069938;28;20164;-75
2021/12/17 02:47:38;;;;;;;0.22;0.22;;;6.20;99.90;;;;;;5069543;28;20191;-75
2021/12/17 02:50:06;;;;;;;0.30;0.30;;;6.20;99.90;;;;;;5068170;28;20684;-75
2021/12/17 02:52:36;;;;;;;0.20;0.20;;;6.20;99.90;;;;;;5069473;28;20183;-75
2021/12/17 02:55:05;;;;;;;0.20;0.20;;;6.10;99.90;;;;;;5069449;28;20169;-74
2021/12/17 02:57:32;;;;;;;0.75;0.45;;;5.90;99.90;;;;;;5069450;28;20157;-75
2021/12/17 02:59:59;;;;;;;0.50;0.30;;;6.10;99.90;;;;;;5069111;28;20235;-75
2021/12/17 03:02:30;;;;;;;0.52;0.30;;;6.10;99.90;;;;;;5069380;28;20159;-75
2021/12/17 03:04:56;;;;;;;1.13;0.30;;;5.90;99.90;;;;;;5069260;28;20157;-75
2021/12/17 03:07:23;;;;;;;0.30;0.30;;;5.60;99.90;;;;;;5069060;28;20188;-75
2021/12/17 03:10:03;;;;;;;0.85;0.38;;;5.40;99.90;;;;;;5069152;28;20199;-75
2021/12/17 03:12:42;;;;;;;0.22;0.20;;;5.20;99.90;;;;;;5069201;28;20149;-75
2021/12/17 03:25:42;;;;;;;0.90;0.30;;;4.00;99.90;;;;;;5069002;28;20536;-75
2021/12/17 03:28:09;;;;;;;0.30;0.30;;;4.40;99.90;;;;;;5067581;28;20299;-75
2021/12/17 03:30:35;;;;;;;0.20;0.20;;;5.50;99.90;;;;;;5067715;28;20188;-75
2021/12/17 03:33:01;;;;;;;0.63;0.28;;;5.90;99.90;;;;;;5067396;28;20236;-75
2021/12/17 03:35:27;;;;;;;0.28;0.28;;;5.90;99.90;;;;;;5069010;28;20579;-75
2021/12/17 03:37:53;;;;;;;0.47;0.30;;;5.90;99.90;;;;;;5084459;28;20207;-75
2021/12/17 03:40:20;;;;;;;1.75;0.30;;;5.90;99.90;;;;;;5067278;28;20195;-75
2021/12/17 03:42:49;;;;;;;0.50;0.40;;;5.80;99.90;;;;;;5067448;28;20168;-75
2021/12/17 03:45:18;;;;;;;0.88;0.30;;;5.60;99.90;;;;;;5069636;28;20157;-76
2021/12/17 03:47:44;;;;;;;0.20;0.20;;;5.40;99.90;;;;;;5071510;28;20234;-75
2021/12/17 03:50:11;;;;;;;0.10;0.10;;;5.00;99.90;;;;;;5072829;28;20211;-75
2021/12/17 03:52:37;;;;;;;1.85;0.30;;;4.60;99.90;;;;;;5072891;28;20184;-75
2021/12/17 03:55:04;;;;;;;0.82;0.22;;;4.20;99.90;;;;;;5071388;28;20165;-75
2021/12/17 03:57:30;;;;;;;0.47;0.47;;;3.90;99.90;;;;;;5072697;28;20168;-75
2021/12/17 03:59:56;;;;;;;0.63;0.50;;;3.70;99.90;;;;;;5072103;28;20224;-75
2021/12/17 04:02:22;;;;;;;0.57;0.47;;;3.50;99.90;;;;;;5087879;28;20176;-75
2021/12/17 04:04:48;;;;;;;0.65;0.52;;;3.50;99.90;;;;;;5071133;28;20315;-75
2021/12/17 04:07:14;;;;;;;0.50;0.50;;;3.60;99.90;;;;;;5072419;28;20208;-75
2021/12/17 04:09:40;;;;;;;0.73;0.63;;;3.70;99.90;;;;;;5070982;28;20188;-75
2021/12/17 04:12:11;;;;;;;1.08;0.70;;;4.20;99.90;;;;;;5072327;28;20191;-75
2021/12/17 04:14:46;;;;;;;0.55;0.55;;;4.50;99.90;;;;;;5072447;28;20156;-75
2021/12/17 04:17:21;;;;;;;2.25;0.68;;;5.10;99.90;;;;;;5072356;28;20152;-75
2021/12/17 04:19:47;;;;;;;0.75;0.60;;;4.80;99.90;;;;;;5072188;28;20246;-75
2021/12/17 04:22:13;;;;;;;1.27;0.50;;;4.30;99.90;;;;;;5070935;28;20240;-75
2021/12/17 04:24:40;;;;;;;1.50;0.50;;;4.10;99.90;;;;;;5070849;28;20172;-75
2021/12/17 04:27:08;;;;;;;2.05;1.02;;;3.80;99.90;;;;;;5072125;28;20180;-75
2021/12/17 04:29:41;;;;;;;1.35;0.90;;;3.60;99.90;;;;;;5071867;28;20185;-76
2021/12/17 04:32:07;;;;;;;0.40;0.40;;;3.40;99.90;;;;;;5072053;28;20153;-75
2021/12/17 04:34:33;;;;;;;0.60;0.60;;;3.50;99.90;;;;;;5072048;28;20528;-74
2021/12/17 04:36:59;;;;;;;0.50;0.50;;;3.40;99.90;;;;;;5087265;28;20176;-75
2021/12/17 04:39:26;;;;;;;0.80;0.80;;;3.20;99.90;;;;;;5071748;28;20192;-75
2021/12/17 04:41:59;;;;;;;1.38;0.80;;;3.20;99.90;;;;;;5070407;28;20224;-74
2021/12/17 04:44:29;;;;;;;2.35;0.52;;;3.30;99.90;;;;;;5071667;28;20224;-75
2021/12/17 04:57:41;;;;;;;1.35;0.77;;;3.40;99.90;;;;;;5070085;28;20155;-75
2021/12/17 05:00:17;;;;;;;0.73;0.60;;;3.30;99.90;;;;;;5070916;28;20235;-75
2021/12/17 05:02:48;;;;;;;2.70;0.30;;;3.40;99.90;;;;;;5071315;28;20156;-74
2021/12/17 05:05:15;;;;;;;0.20;0.20;;;3.50;99.90;;;;;;5071512;28;20157;-74
2021/12/17 05:07:49;;;;;;;0.75;0.47;;;4.00;99.90;;;;;;5071174;28;20216;-76
2021/12/17 05:18:26;;;;;;;1.10;0.20;;;5.70;99.90;;;;;;5071066;28;20201;-76
2021/12/17 05:20:59;;;;;;;0.65;0.35;;;5.90;99.90;;;;;;5071080;28;20567;-76
2021/12/17 05:23:32;;;;;;;0.38;0.38;;;5.80;99.90;;;;;;5070902;28;20157;-76
2021/12/17 05:26:03;;;;;;;1.88;0.60;;;5.90;99.90;;;;;;5070834;28;20153;-76
2021/12/17 05:28:29;;;;;;;2.88;1.00;;;5.90;99.90;;;;;;5070780;28;20192;-76
2021/12/17 05:30:56;;;;;;;0.95;0.52;;;5.70;99.90;;;;;;5070835;28;20172;-76
2021/12/17 05:33:24;;;;;;;2.03;0.90;;;5.60;99.90;;;;;;5069232;28;20179;-75
2021/12/17 05:35:50;;;;;;;0.40;0.30;;;5.60;99.90;;;;;;5070827;28;20222;-74
2021/12/17 05:38:18;;;;;;;0.40;0.40;;;5.50;99.90;;;;;;5070647;28;20192;-75
2021/12/17 05:40:45;;;;;;;0.40;0.40;;;5.40;99.90;;;;;;5070630;28;20172;-75
2021/12/17 05:43:13;;;;;;;2.53;0.60;;;5.50;99.90;;;;;;5069188;28;20176;-76
2021/12/17 05:48:26;;;;;;;1.00;0.52;;;5.40;99.90;;;;;;5070406;28;20184;-75
2021/12/17 05:50:55;;;;;;;0.95;0.52;;;5.10;99.90;;;;;;5070346;28;20491;-75
2021/12/17 05:53:22;;;;;;;1.45;0.63;;;5.10;99.90;;;;;;5069949;28;20161;-75
2021/12/17 05:55:49;;;;;;;1.50;0.60;;;5.10;99.90;;;;;;5070106;28;20159;-75
2021/12/17 05:58:16;;;;;;;1.20;0.43;;;5.20;99.90;;;;;;5069946;28;20203;-75
2021/12/17 06:00:43;;;;;;;0.80;0.80;;;5.20;99.90;;;;;;5068673;28;20177;-76
2021/12/17 06:03:10;;;;;;;0.90;0.63;;;5.00;99.90;;;;;;5070364;28;20165;-75
2021/12/17 06:05:37;;;;;;;1.75;0.55;;;4.80;99.90;;;;;;5070205;28;20302;-76
2021/12/17 06:08:04;;;;;;;1.83;0.60;;;4.30;99.90;;;;;;5069516;28;20216;-75
2021/12/17 06:10:30;;;;;;;0.90;0.43;;;3.80;99.90;;;;;;5069917;28;20153;-75
2021/12/17 06:12:56;;;;;;;2.13;0.80;;;3.70;99.90;;;;;;5068743;28;20259;-76
2021/12/17 06:15:22;;;;;;;4.05;0.60;;;3.40;99.90;;;;;;5069631;28;20158;-75
2021/12/17 06:17:50;;;;;;;0.50;0.50;;;3.20;99.90;;;;;;5069950;28;20164;-75
2021/12/17 06:20:19;;;;;;;0.85;0.85;;;3.00;99.90;;;;;;5069609;28;20165;-75
2021/12/17 06:22:46;;;;;;;1.33;1.02;;;2.70;99.90;;;;;;5069736;28;20165;-75
2021/12/17 06:25:13;;;;;;;2.78;1.08;;;2.50;99.90;;;;;;5069672;28;20242;-76
2021/12/17 06:27:39;;;;;;;1.85;1.00;;;2.40;99.90;;;;;;5069334;28;20355;-76
2021/12/17 06:30:08;;;;;;;2.45;1.40;;;2.30;99.90;;;;;;5084649;28;20203;-75
2021/12/17 06:32:35;;;;;;;1.10;1.00;;;2.20;99.90;;;;;;5069294;28;20172;-74
2021/12/17 06:35:01;;;;;;;1.45;1.10;;;2.20;99.90;;;;;;5067882;28;20172;-75
2021/12/17 06:37:27;;;;;;;5.80;1.45;;;2.60;99.90;;;;;;5069503;28;20228;-76
2021/12/17 06:39:52;;;;;;;0.47;0.47;;;3.20;99.90;;;;;;5069016;28;20207;-76
2021/12/17 06:42:19;;;;;;;2.92;0.82;;;3.30;99.90;;;;;;5069409;28;20157;-75
2021/12/17 06:44:47;;;;;;;0.63;0.47;;;3.40;99.90;;;;;;5069336;28;20225;-76
2021/12/17 06:49:55;;;;;;;2.72;0.70;;;4.60;99.90;;;;;;5069504;28;20190;-74
2021/12/17 06:55:24;;;;;;;2.15;1.00;;;4.20;99.90;;;;;;5068981;28;20179;-74
2021/12/17 07:06:10;;;;;;;1.93;1.00;;;4.30;99.90;;;;;;5069277;28;20187;-75
2021/12/17 07:28:04;;;;;;;2.53;1.10;;;5.10;99.90;;;;;;5028945;28;20177;-75
2021/12/17 07:33:17;;;;;;;2.17;1.45;;;4.80;99.90;;;;;;5028881;28;20185;-75
2021/12/17 07:35:53;;;;;;;1.92;1.10;;;4.90;99.90;;;;;;5028379;28;20213;-76
2021/12/17 07:41:03;;;;;;;2.15;1.30;;;5.20;99.90;;;;;;5028398;28;20185;-76
2021/12/17 07:46:04;;;;;;;2.28;0.80;;;6.40;99.90;;;;;;5027830;28;20229;-74
2021/12/17 07:48:31;;;;;;;2.35;1.40;;;6.60;99.90;;;;;;5028295;28;20154;-75
2021/12/17 07:50:59;;;;;;;1.65;1.13;;;6.50;99.90;;;;;;5028582;28;20154;-75
2021/12/17 07:53:25;;;;;;;1.20;0.85;;;6.50;99.90;;;;;;5028510;28;20192;-76
2021/12/17 07:55:51;;;;;;;1.27;0.60;;;6.60;99.90;;;;;;5028555;28;20147;-75
2021/12/17 07:58:17;;;;;;;2.13;0.73;;;6.70;99.90;;;;;;5027608;28;20245;-76
2021/12/17 08:00:43;;;;;;;0.75;0.47;;;7.10;99.90;;;;;;5008861;28;20242;-76
2021/12/17 08:03:11;;;;;;;1.63;0.50;;;7.20;99.90;;;;;;4990818;28;20202;-75
2021/12/17 08:05:37;;;;;;;0.70;0.47;;;7.50;99.90;;;;;;5008707;28;20206;-76
2021/12/17 08:08:03;;;;;;;1.42;0.82;;;7.50;99.90;;;;;;4991205;28;20230;-74
2021/12/17 08:10:31;;;;;;;0.82;0.40;;;7.80;99.90;;;;;;5008555;28;20192;-75
2021/12/17 08:12:57;;;;;;;4.38;0.70;;;8.00;99.90;;;;;;5008899;28;20191;-75
2021/12/17 08:15:31;;;;;;;4.22;0.50;;;7.80;99.90;;;;;;5008795;28;20151;-74
2021/12/17 08:18:25;;;;;;;2.13;0.60;;;7.70;99.90;;;;;;5008729;28;20234;-74
2021/12/17 08:26:19;;;;;;;8.07;1.75;;;7.40;99.90;;;;;;5008925;28;20165;-76
2021/12/17 08:31:27;;;;;;;3.95;1.85;;;9.50;99.90;;;;;;5009763;28;20154;-76
2021/12/17 08:33:53;;;;;;;5.43;1.42;;;10.10;99.90;;;;;;4994584;28;20199;-76
2021/12/17 08:36:20;;;;;;;1.52;0.80;;;9.40;99.90;;;;;;5012288;28;20230;-75
2021/12/17 08:38:49;;;;;;;4.00;2.28;;;9.60;99.90;;;;;;5012441;28;20193;-76
2021/12/17 08:41:18;;;;;;;4.22;1.58;;;10.60;99.90;;;;;;5012266;28;20162;-76
2021/12/17 08:43:44;;;;;;;2.95;1.27;;;11.30;99.90;;;;;;5012276;28;20206;-75
2021/12/17 08:46:11;;;;;;;7.75;1.92;;;10.80;99.90;;;;;;5012139;28;20167;-76
2021/12/17 08:48:38;;;;;;;1.60;1.08;;;11.20;99.90;;;;;;4994532;28;20179;-76
2021/12/17 08:51:06;;;;;;;4.18;1.63;;;10.90;99.90;;;;;;5012069;28;20163;-75
2021/12/17 08:53:33;;;;;;;8.40;2.10;;;10.20;99.90;;;;;;5011974;28;20254;-76
2021/12/17 08:55:59;;;;;;;6.80;1.95;;;10.00;99.90;;;;;;5012095;28;20173;-76
2021/12/17 08:58:25;;;;;;;2.72;1.98;;;9.90;99.90;;;;;;5011778;28;20158;-76
2021/12/17 09:00:51;;;;;;;7.55;2.95;;;10.50;99.90;;;;;;5011850;28;20163;-76
2021/12/17 09:03:17;;;;;;;5.03;2.08;;;10.80;99.90;;;;;;5011954;28;20214;-76
2021/12/17 09:05:45;;;;;;;10.63;2.58;;;10.90;99.90;;;;;;5011817;28;20164;-76
2021/12/17 09:08:11;;;;;;;9.98;2.45;;;10.70;99.90;;;;;;5011706;28;20187;-76
2021/12/17 09:10:38;;;;;;;7.40;2.65;;;10.40;99.90;;;;;;5011782;28;20154;-76
2021/12/17 09:13:05;;;;;;;8.15;1.60;;;10.90;99.90;;;;;;5011512;28;20222;-76
2021/12/17 09:15:31;;;;;;;16.75;2.83;;;11.30;99.90;;;;;;5011807;28;20163;-75
2021/12/17 09:17:58;;;;;;;17.27;3.17;;;11.40;99.90;;;;;;5011568;28;20242;-75
2021/12/17 09:20:24;;;;;;;24.95;4.53;;;11.50;99.90;;;;;;5011442;28;20155;-76
2021/12/17 09:22:51;;;;;;;17.15;5.03;;;11.50;99.90;;;;;;5011312;28;20195;-75
2021/12/17 09:25:17;;;;;;;23.13;6.40;;;11.50;99.90;;;;;;5011468;28;20226;-75
2021/12/17 09:27:42;;;;;;;24.70;7.13;;;11.10;99.90;;;;;;5011009;28;20217;-75
2021/12/17 09:30:12;;;;;;;13.35;5.38;;;10.30;99.90;;;;;;4993784;28;20170;-74
2021/12/17 09:32:39;;;;;;;16.50;4.95;;;9.70;99.90;;;;;;5011092;28;20194;-75
2021/12/17 09:35:09;;;;;;;6.95;3.65;;;9.00;99.90;;;;;;5010267;28;20161;-75
2021/12/17 09:37:36;;;;;;;10.88;5.15;;;8.20;99.90;;;;;;4993136;28;20175;-75
2021/12/17 09:40:06;;;;;;;8.73;3.90;;;7.40;99.90;;;;;;5011145;28;20170;-74
2021/12/17 09:42:33;;;;;;;10.27;4.20;;;7.30;99.90;;;;;;5010554;28;20269;-74
2021/12/17 09:44:59;;;;;;;11.68;4.35;;;7.20;99.90;;;;;;4993320;28;20258;-75
2021/12/17 09:47:25;;;;;;;10.77;3.97;;;7.90;99.90;;;;;;5010691;28;20186;-74
2021/12/17 09:49:56;;;;;;;11.88;3.85;;;8.50;99.90;;;;;;5010780;28;20237;-74
2021/12/17 09:52:24;;;;;;;10.45;3.63;;;9.20;99.90;;;;;;4993223;28;20230;-75
2021/12/17 09:54:51;;;;;;;12.60;4.38;;;9.90;99.90;;;;;;5010801;28;20159;-74
2021/12/17 09:57:20;;;;;;;5.43;3.60;;;11.50;99.90;;;;;;5010699;28;20162;-75
2021/12/17 09:59:47;;;;;;;6.78;3.45;;;13.00;99.90;;;;;;5010582;28;20214;-74
2021/12/17 10:02:13;;;;;;;8.85;3.60;;;13.80;99.90;;;;;;5010774;28;20171;-75
2021/12/17 10:04:44;;;;;;;11.07;4.20;;;14.30;99.90;;;;;;5010422;28;20178;-75
2021/12/17 10:07:20;;;;;;;14.60;4.18;;;14.80;99.90;;;;;;5010453;28;20194;-75
2021/12/17 10:09:52;;;;;;;8.90;3.25;;;15.50;99.90;;;;;;5010613;28;20159;-75
2021/12/17 10:12:25;;;;;;;5.45;3.00;;;16.40;99.90;;;;;;5010499;28;20193;-75
2021/12/17 10:15:20;;;;;;;5.53;2.88;;;16.00;99.90;;;;;;5010534;28;20163;-75
2021/12/17 10:18:00;;;;;;;12.57;4.13;;;16.30;99.90;;;;;;5009887;28;20221;-75
2021/12/17 10:20:42;;;;;;;15.13;4.15;;;16.90;99.90;;;;;;5013347;28;20605;-75
2021/12/17 10:23:11;;;;;;;10.13;2.97;;;17.60;99.90;;;;;;4998414;28;20199;-75
2021/12/17 10:25:42;;;;;;;15.55;4.30;;;17.20;99.90;;;;;;5011778;28;20254;-74
2021/12/17 10:28:08;;;;;;;22.48;3.63;;;17.30;99.90;;;;;;5011674;28;20214;-74
2021/12/17 10:30:37;;;;;;;14.90;4.28;;;17.30;99.90;;;;;;5012108;28;20652;-74
2021/12/17 10:33:09;;;;;;;13.50;3.90;;;17.50;99.90;;;;;;5029364;28;20710;-74
2021/12/17 10:35:38;;;;;;;18.58;4.47;;;18.00;99.90;;;;;;5011651;28;20158;-74
2021/12/17 10:38:07;;;;;;;17.52;3.67;;;18.20;99.90;;;;;;5023161;28;20173;-74
2021/12/17 10:40:39;;;;;;;13.02;3.42;;;18.30;99.90;;;;;;5029382;28;20229;-75
2021/12/17 10:43:31;;;;;;;7.95;2.78;;;18.30;99.90;;;;;;5011645;28;20572;-75
2021/12/17 10:48:37;;;;;;;17.88;3.80;;;17.80;99.90;;;;;;5029160;28;20211;-74
2021/12/17 10:54:19;;;;;;;7.90;2.88;;;16.80;99.90;;;;;;5028750;28;20224;-75
2021/12/17 10:56:50;;;;;;;16.90;3.53;;;17.30;99.90;;;;;;5028753;28;20165;-75
2021/12/17 10:59:18;;;;;;;18.92;4.68;;;17.60;99.90;;;;;;5029838;28;20213;-77
2021/12/17 11:01:45;;;;;;;11.32;4.10;;;17.50;99.90;;;;;;5028980;28;20252;-76
2021/12/17 11:04:16;;;;;;;18.88;4.47;;;16.10;99.90;;;;;;5028946;28;20194;-77
2021/12/17 11:06:45;;;;;;;10.85;3.28;;;16.50;99.90;;;;;;5029116;28;20194;-77
2021/12/17 11:09:12;;;;;;;19.02;3.95;;;17.30;99.90;;;;;;5029012;28;20166;-76
2021/12/17 11:11:42;;;;;;;13.85;3.92;;;17.80;99.90;;;;;;5028986;28;20154;-77
2021/12/17 11:14:09;;;;;;;10.38;3.60;;;18.10;99.90;;;;;;5028685;28;20658;-77
2021/12/17 11:16:37;;;;;;;15.57;4.28;;;18.00;99.90;;;;;;5028980;28;20237;-76
2021/12/17 11:19:04;;;;;;;20.77;4.97;;;17.30;99.90;;;;;;5028967;28;20157;-79
2021/12/17 11:21:32;;;;;;;14.77;5.20;;;16.40;99.90;;;;;;5016748;28;20178;-78
2021/12/17 11:24:00;;;;;;;14.95;5.65;;;15.70;99.90;;;;;;5014567;28;20193;-78
2021/12/17 11:26:27;;;;;;;14.63;4.38;;;16.10;99.90;;;;;;5028873;28;20190;-78
2021/12/17 11:29:00;;;;;;;15.23;4.13;;;16.30;99.90;;;;;;5028853;28;20196;-75
2021/12/17 11:31:27;;;;;;;11.23;3.72;;;16.50;99.90;;;;;;5028859;28;20181;-75
2021/12/17 11:33:54;;;;;;;11.57;3.40;;;17.40;99.90;;;;;;5028815;28;20560;-74
2021/12/17 11:36:20;;;;;;;23.95;5.00;;;17.60;99.90;;;;;;5028320;28;20174;-75
2021/12/17 11:38:52;;;;;;;11.00;4.38;;;17.70;99.90;;;;;;5028924;28;20181;-74
2021/12/17 11:41:26;;;;;;;23.70;4.85;;;17.60;99.90;;;;;;5028753;28;20154;-74
2021/12/17 11:44:02;;;;;;;13.60;4.20;;;17.00;99.90;;;;;;5028780;28;20264;-74
2021/12/17 11:46:32;;;;;;;9.65;2.35;;;17.50;99.90;;;;;;5011099;28;20181;-74
2021/12/17 11:49:04;;;;;;;16.55;2.95;;;16.90;98.10;;;;;;5028596;28;20224;-74
2021/12/17 11:51:33;;;;;;;11.60;3.33;;;16.70;99.90;;;;;;5028607;28;20182;-74
2021/12/17 11:54:26;;;;;;;16.80;3.63;;;16.90;99.90;;;;;;5027569;28;20212;-75
2021/12/17 11:57:03;;;;;;;10.32;2.15;;;17.20;99.90;;;;;;5008585;28;20169;-74
2021/12/17 11:59:32;;;;;;;4.38;1.05;;;17.50;99.40;;;;;;5019078;28;20221;-73
2021/12/17 12:02:16;;;;;;;8.38;1.48;;;17.30;97.20;;;;;;5010724;28;20166;-74
2021/12/17 12:04:46;;;;;;;2.28;0.80;;;17.60;98.80;;;;;;5028620;28;20185;-74
2021/12/17 12:07:18;;;;;;;1.73;1.20;;;17.60;97.80;;;;;;5013012;28;20228;-75
2021/12/17 12:09:59;;;;;;;1.58;1.00;;;16.40;99.70;;;;;;5032033;28;20172;-74
2021/12/17 12:12:25;;;;;;;6.60;1.20;;;15.10;99.90;;;;;;5032344;28;20201;-75
2021/12/17 12:14:50;;;;;;;3.38;1.00;;;15.20;99.90;;;;;;5032041;28;20580;-74
2021/12/17 12:17:55;;;;;;;2.47;0.70;;;16.00;99.90;;;;;;5031963;28;20185;-75
2021/12/17 12:20:46;;;;;;;1.83;0.95;;;15.70;99.90;;;;;;5031936;28;20184;-77
2021/12/17 12:23:17;;;;;;;1.08;0.60;;;15.60;99.90;;;;;;5032031;28;20221;-78
2021/12/17 12:26:05;;;;;;;2.83;0.80;;;15.10;99.90;;;;;;5032422;28;20214;-75
2021/12/17 12:28:46;;;;;;;1.98;0.30;;;14.70;99.90;;;;;;5038998;28;20231;-76
2021/12/17 12:31:24;;;;;;;1.02;0.50;;;13.60;99.90;;;;;;5051716;28;20169;-74
2021/12/17 12:34:06;;;;;;;0.47;0.40;;;13.20;99.90;;;;;;5051420;28;20201;-76
2021/12/17 12:36:59;;;;;;;1.92;0.35;;;12.80;99.90;;;;;;5051345;28;20150;-75
2021/12/17 12:39:46;;;;;;;1.77;0.30;;;12.70;99.90;;;;;;5009178;28;20208;-75
2021/12/17 12:42:16;;;;;;;2.75;0.90;;;12.60;99.90;;;;;;5045061;28;20170;-76
2021/12/17 12:44:42;;;;;;;0.57;0.30;;;12.60;99.90;;;;;;5013182;28;20155;-75
2021/12/17 12:47:20;;;;;;;1.00;0.30;;;12.60;99.90;;;;;;4993951;28;20221;-75
2021/12/17 12:49:52;;;;;;;1.13;0.40;;;12.50;99.90;;;;;;4994512;28;20158;-75
2021/12/17 12:52:37;;;;;;;0.28;0.28;;;12.40;99.90;;;;;;4994360;28;20159;-76
2021/12/17 12:55:21;;;;;;;1.20;0.30;;;12.40;99.90;;;;;;5003447;28;20166;-75
2021/12/17 12:58:09;;;;;;;0.90;0.35;;;12.20;99.90;;;;;;5013333;28;20178;-76
2021/12/17 13:00:38;;;;;;;0.38;0.20;;;12.00;99.90;;;;;;5030761;28;20237;-75
2021/12/17 13:03:17;;;;;;;0.20;0.20;;;11.90;99.90;;;;;;5013371;28;20209;-75
2021/12/17 13:05:47;;;;;;;0.35;0.25;;;11.80;99.90;;;;;;5013474;28;20188;-76
2021/12/17 13:08:16;;;;;;;0.70;0.20;;;11.60;99.90;;;;;;5031095;28;20206;-75
2021/12/17 13:10:49;;;;;;;0.75;0.20;;;11.50;99.90;;;;;;5012847;28;20201;-75
2021/12/17 13:16:03;;;;;;;2.47;0.40;;;11.30;99.90;;;;;;5030716;28;20181;-75
2021/12/17 13:23:56;;;;;;;0.43;0.17;;;11.20;99.90;;;;;;5030700;28;20557;-76
2021/12/17 13:26:26;;;;;;;0.20;0.20;;;11.10;99.90;;;;;;5030763;28;20157;-75
2021/12/17 13:29:10;;;;;;;2.33;0.20;;;11.20;99.90;;;;;;5023540;28;20174;-78
2021/12/17 13:31:38;;;;;;;1.92;0.40;;;11.10;99.90;;;;;;5011614;28;20182;-78
2021/12/17 13:34:24;;;;;;;4.22;0.38;;;11.10;99.90;;;;;;5017533;28;20206;-79
2021/12/17 13:36:54;;;;;;;2.92;0.52;;;11.00;99.90;;;;;;5022390;28;20178;-79
2021/12/17 13:39:21;;;;;;;0.65;0.50;;;10.80;99.90;;;;;;5028344;28;20163;-78
2021/12/17 13:41:48;;;;;;;0.77;0.40;;;10.70;99.90;;;;;;5011487;28;20198;-78
2021/12/17 13:44:33;;;;;;;2.35;1.00;;;10.80;99.90;;;;;;5028970;28;20158;-78
2021/12/17 13:47:17;;;;;;;0.85;0.45;;;11.00;99.90;;;;;;5030150;28;20536;-77
2021/12/17 13:49:58;;;;;;;4.57;2.47;;;10.90;99.90;;;;;;5012468;28;20166;-77
2021/12/17 13:52:28;;;;;;;4.47;2.65;;;10.10;99.90;;;;;;5012762;28;20201;-77
2021/12/17 13:54:55;;;;;;;9.15;3.33;;;9.40;99.90;;;;;;5022051;28;20182;-77
2021/12/17 13:57:27;;;;;;;5.28;2.75;;;9.10;99.90;;;;;;5010574;28;20217;-77
2021/12/17 14:00:06;;;;;;;4.35;2.38;;;8.90;99.90;;;;;;5024402;28;20240;-77
2021/12/17 14:02:35;;;;;;;4.78;2.40;;;8.50;99.90;;;;;;5030021;28;20221;-78
2021/12/17 14:05:06;;;;;;;4.00;2.50;;;8.00;99.90;;;;;;5029926;28;20189;-77
2021/12/17 14:07:34;;;;;;;9.07;3.55;;;7.60;99.90;;;;;;5030102;28;20186;-77
2021/12/17 14:10:05;;;;;;;8.45;3.10;;;7.50;99.90;;;;;;5030078;28;20646;-77
2021/12/17 14:12:36;;;;;;;10.25;3.20;;;7.20;99.90;;;;;;5028702;28;20205;-76
2021/12/17 14:15:22;;;;;;;6.35;3.90;;;7.00;99.90;;;;;;5030082;28;20163;-76
2021/12/17 14:17:54;;;;;;;7.97;3.15;;;6.80;99.90;;;;;;5030087;28;20249;-77
2021/12/17 14:20:22;;;;;;;8.80;3.22;;;6.70;99.90;;;;;;5029831;28;20174;-76
2021/12/17 14:22:55;;;;;;;6.45;4.43;;;6.70;99.90;;;;;;5029797;28;20200;-76
2021/12/17 14:25:27;;;;;;;6.15;3.15;;;6.70;99.90;;;;;;5041087;28;20564;-77
2021/12/17 14:27:56;;;;;;;4.68;2.83;;;6.60;99.90;;;;;;5051545;28;20208;-77
2021/12/17 14:30:32;;;;;;;6.72;3.33;;;6.40;99.90;;;;;;5049684;28;20197;-76
2021/12/17 14:33:25;;;;;;;11.23;4.43;;;6.30;99.90;;;;;;5049291;28;20200;-76
2021/12/17 14:36:06;;;;;;;5.50;3.85;;;6.30;99.90;;;;;;5046578;28;20189;-76
2021/12/17 14:38:38;;;;;;;13.93;4.20;;;6.10;99.90;;;;;;5049336;28;20161;-76
2021/12/17 14:41:07;;;;;;;6.10;3.92;;;6.00;99.90;;;;;;5049088;28;20164;-75
2021/12/17 14:43:38;;;;;;;9.15;4.18;;;6.00;99.90;;;;;;5048994;28;20192;-75
2021/12/17 14:49:06;;;;;;;9.35;4.13;;;5.80;99.90;;;;;;5048425;28;20228;-76
2021/12/17 14:57:50;;;;;;;7.18;3.95;;;5.50;99.90;;;;;;5049066;28;20188;-77
2021/12/17 15:02:59;;;;;;;13.45;4.45;;;5.30;99.90;;;;;;5029057;28;20221;-77
2021/12/17 15:05:28;;;;;;;7.78;4.22;;;5.20;99.90;;;;;;5029221;28;20177;-77
2021/12/17 15:07:56;;;;;;;8.25;4.43;;;5.20;99.90;;;;;;5011616;28;20197;-78
2021/12/17 15:10:23;;;;;;;13.07;4.70;;;5.10;99.90;;;;;;5027904;28;20171;-78
2021/12/17 15:12:56;;;;;;;13.15;4.97;;;5.00;99.90;;;;;;5011266;28;20197;-79
2021/12/17 15:15:26;;;;;;;13.13;4.65;;;5.00;99.90;;;;;;5029066;28;20182;-78
2021/12/17 15:17:53;;;;;;;9.75;4.75;;;4.90;99.90;;;;;;5029030;28;20173;-77
2021/12/17 15:20:29;;;;;;;13.23;5.32;;;4.80;99.90;;;;;;5028844;28;20173;-79
2021/12/17 15:22:56;;;;;;;14.43;4.30;;;4.60;99.90;;;;;;5028934;28;20571;-77
2021/12/17 15:25:23;;;;;;;6.80;4.32;;;4.50;99.90;;;;;;5020142;28;20245;-78
2021/12/17 15:27:50;;;;;;;8.57;4.80;;;4.60;99.90;;;;;;5012018;28;20187;-79
2021/12/17 15:30:38;;;;;;;10.10;5.53;;;4.70;99.90;;;;;;5019732;28;20186;-79
2021/12/17 15:33:05;;;;;;;7.35;4.82;;;4.80;99.90;;;;;;5009239;28;20262;-77
2021/12/17 15:35:32;;;;;;;13.88;4.95;;;4.60;99.90;;;;;;5009211;28;20682;-76
2021/12/17 15:38:00;;;;;;;8.63;4.32;;;4.40;99.90;;;;;;5009073;28;20163;-76
2021/12/17 15:40:26;;;;;;;7.13;4.22;;;4.40;99.90;;;;;;5009319;28;20158;-75
2021/12/17 15:42:54;;;;;;;9.88;4.82;;;4.20;99.90;;;;;;5012568;28;20201;-76
2021/12/17 15:45:20;;;;;;;10.98;5.13;;;4.10;99.90;;;;;;5013058;28;20159;-76
2021/12/17 15:47:47;;;;;;;25.20;6.63;;;4.00;99.90;;;;;;4995314;28;20210;-75
2021/12/17 15:50:15;;;;;;;7.95;4.88;;;4.00;99.90;;;;;;5012938;28;20182;-76
2021/12/17 15:52:45;;;;;;;12.80;5.72;;;3.80;99.90;;;;;;5012975;28;20201;-77
2021/12/17 15:55:21;;;;;;;14.55;5.18;;;3.70;99.90;;;;;;5012991;28;20163;-76
2021/12/17 15:57:49;;;;;;;6.78;4.53;;;3.60;99.90;;;;;;5013109;28;20150;-76
2021/12/17 16:00:17;;;;;;;10.60;5.32;;;3.50;99.90;;;;;;5012609;28;20218;-75
2021/12/17 16:02:44;;;;;;;8.90;4.60;;;3.40;99.90;;;;;;5012572;28;20672;-75
2021/12/17 16:05:13;;;;;;;8.57;4.65;;;3.30;99.90;;;;;;5012893;28;20201;-75
2021/12/17 16:07:40;;;;;;;8.57;5.05;;;3.20;99.90;;;;;;5012501;28;20218;-76
2021/12/17 16:21:04;;;;;;;10.52;6.28;;;3.20;99.90;;;;;;5012278;28;20737;-75
2021/12/17 16:23:51;;;;;;;14.13;6.70;;;3.10;99.90;;;;;;5024098;28;20201;-75
2021/12/17 16:26:20;;;;;;;13.80;6.47;;;3.00;99.90;;;;;;5025839;28;20189;-76
2021/12/17 16:28:47;;;;;;;25.48;6.95;;;2.90;99.90;;;;;;5031419;28;20174;-75
2021/12/17 16:31:15;;;;;;;8.38;5.72;;;2.80;99.90;;;;;;5031785;28;20186;-75
2021/12/17 16:33:43;;;;;;;13.13;6.35;;;2.70;99.90;;;;;;5031325;28;20162;-76
2021/12/17 16:36:09;;;;;;;12.75;6.18;;;2.50;99.90;;;;;;5014231;28;20181;-76
2021/12/17 16:38:36;;;;;;;10.52;5.97;;;2.40;99.90;;;;;;5031710;28;20201;-75